Pagrindinis puslapis
METAR-TAF:

METAR-TAF

Oro uostai :

Odensė, Danija

platuma: 55-29N, ilguma: 010-20E, Aukštis: 17 m

Dabartinis oras

Ataskaita buvo paskelbta 2 valandos ir 40 minutes, ne 15:50 UTC
Vėjas 7 kt iš Vakarų/Pietvakarių, svyruoja nuo Pietų/Pietvakarių ir Šiaurės Vakarų
Temperatūra 13°C
Drėgmė 94%
Slėgis 1012 hPa
Matomumas 10 km arba daugiau
Mažai debesys ne aukštis 600 ft
Su prošvaistėmis ne aukštis 1000 ft
Apsiniaukę ne aukštis 1300 ft

METAR: EKOD 301550Z 25007KT 200V310 9999 FEW006 BKN010 OVC013 13/12 Q1012

Laikas: 19:30 (18:30 UTC)

Prognozė

Ataskaita buvo paskelbta 6 valandos ir 32 minutes, ne 11:58 UTC
Prognozė galioja nuo 30 metu 12 UTC su 30 metu 16 UTC
Vėjas 8 kt iš Vakarų
Matomumas: 2500 m
Su prošvaistėmis ne aukštis 300 ft
lietus, dulksna, rūkana
Laikinai
nuo 30 metu 12 UTC su 30 metu 16 UTC
Matomumas: 6000 m
Su prošvaistėmis ne aukštis 1200 ft

TAF: EKOD 301158Z 3012/3016 26008KT 2500 -RADZ BR BKN003 TEMPO 3012/3016 6000 NSW BKN012

Orai ataskaitas ir orų prognozės (METAR, TAF).

turimą stotys yra geltonos ir raudonos taškus žemėlapyje.

Perkelti pele per norėdami pamatyti stoties vardą.

Tada spustelėkite, norėdami matyti oro stebėjimo ir prognozės.

Norėdami pakeisti žemėlapį: spustelėkite ant žalios mygtukų su juodo kryžiaus žemyn,; žalią mygtuką su brūkšneliu, jei norite nutolinti; arba žalių rodyklių gretimoms žemėlapius.


METAR-TAF: